F/V Atalante — FVRQ — position and weather

sailwx.info

Track history (hours):
 
Tides and Currents Weather Stations Pressure Air Temp Water Temp Dewpoint Dewpoint Depression Visibility Wind Speed Wind Dir Waves Ship Positions

F/V Atalante

Last reported at 2014-Oct-29 18:32 UTC. Time now 2014-Oct-31 18:41 UTC.
Position N 47°20' W 003°26'.

Length 21 m; draft 3.9 m.

Type: . MMSI: 228854000.

Date/timePositionNaut miles runAvg speedWind from/ knotsBaromVisibWave heightAir tempDewpointWater temp
2014-Oct-29 18:32N 47°20' W 003°26'9 8.9
2014-Oct-29 17:34N 47°25' W 003°36'1 1.3
2014-Oct-29 16:33N 47°26' W 003°38'1 1.2
2014-Oct-29 15:33N 47°25' W 003°37'3 2.2
2014-Oct-29 14:15N 47°26' W 003°41'6 6.8
2014-Oct-29 13:20N 47°28' W 003°49'6 8.2
2014-Oct-29 12:33N 47°25' W 003°41'1110.7
2014-Oct-29 11:31N 47°20' W 003°27'1010.4
2014-Oct-29 10:33N 47°14' W 003°15'10 9.7
2014-Oct-29 09:32N 47°15' W 003°00'9 8.1
2014-Oct-29 08:28N 47°18' W 002°48'5 5.1
2014-Oct-29 07:28N 47°19' W 002°41'7 7.0
2014-Oct-29 06:28N 47°21' W 002°31'0 0.0
2014-Oct-29 05:34N 47°21' W 002°31'7 6.9
2014-Oct-29 04:33N 47°19' W 002°41'10 9.8
2014-Oct-29 03:33N 47°17' W 002°55'10 9.7
2014-Oct-29 02:29N 47°16' W 003°10'8 8.2
2014-Oct-29 01:33N 47°18' W 003°21'4 3.9
2014-Oct-29 00:33N 47°20' W 003°26'1 0.9
2014-Oct-28 23:33N 47°19' W 003°25'0 0.4
2014-Oct-28 22:33N 47°19' W 003°24'8 3.9
2014-Oct-28 20:33N 47°26' W 003°28'1 0.4
2014-Oct-28 19:08N 47°26' W 003°27'6 1.0
2014-Oct-28 13:33N 47°20' W 003°26'15 5.1
2014-Oct-28 10:32N 47°35' W 003°34'16 2.4
2014-Oct-28 03:33N 47°33' W 003°58'3 1.5
2014-Oct-28 01:25N 47°32' W 003°53'15 5.1
2014-Oct-27 22:33N 47°26' W 003°34'3 3.0
2014-Oct-27 21:33N 47°23' W 003°33'6 2.1
2014-Oct-27 18:34N 47°17' W 003°29'1 0.6
2014-Oct-27 17:33N 47°18' W 003°29'8 4.0
2014-Oct-27 15:34N 47°16' W 003°40'7 3.7
2014-Oct-27 13:33N 47°14' W 003°30'9 8.6
2014-Oct-27 12:33N 47°12' W 003°18'10 9.8
2014-Oct-27 11:33N 47°15' W 003°04'1010.3
2014-Oct-27 10:33N 47°17' W 002°49'12 9.3
2014-Oct-27 09:13N 47°20' W 002°31'1 0.8
2014-Oct-27 08:33N 47°21' W 002°31'0 0.4
2014-Oct-27 07:33N 47°21' W 002°31'1210.1
2014-Oct-27 06:23N 47°17' W 002°48'910.2
2014-Oct-27 05:32N 47°15' W 003°00'1010.3
2014-Oct-27 04:32N 47°13' W 003°15'7 2.3
2014-Oct-27 01:34N 47°10' W 003°25'1 0.9
2014-Oct-27 00:34N 47°09' W 003°25'2 0.8
2014-Oct-26 21:33N 47°11' W 003°23'3 2.7
2014-Oct-26 20:34N 47°09' W 003°19'  
Track history (hours):
 
Tides and Currents Weather Stations Pressure Air Temp Water Temp Dewpoint Dewpoint Depression Visibility Wind Speed Wind Dir Waves Ship Positions

F/V Atalante

Last reported at 2014-Oct-29 18:32 UTC. Time now 2014-Oct-31 18:41 UTC.
Position N 47°20' W 003°26'.

Length 21 m; draft 3.9 m.

Type: . MMSI: 228854000.

Date/timePositionNaut miles runAvg speedWind from/ knotsBaromVisibWave heightAir tempDewpointWater temp
2014-Oct-29 18:32N 47°20' W 003°26'9 8.9
2014-Oct-29 17:34N 47°25' W 003°36'1 1.3
2014-Oct-29 16:33N 47°26' W 003°38'1 1.2
2014-Oct-29 15:33N 47°25' W 003°37'3 2.2
2014-Oct-29 14:15N 47°26' W 003°41'6 6.8
2014-Oct-29 13:20N 47°28' W 003°49'6 8.2
2014-Oct-29 12:33N 47°25' W 003°41'1110.7
2014-Oct-29 11:31N 47°20' W 003°27'1010.4
2014-Oct-29 10:33N 47°14' W 003°15'10 9.7
2014-Oct-29 09:32N 47°15' W 003°00'9 8.1
2014-Oct-29 08:28N 47°18' W 002°48'5 5.1
2014-Oct-29 07:28N 47°19' W 002°41'7 7.0
2014-Oct-29 06:28N 47°21' W 002°31'0 0.0
2014-Oct-29 05:34N 47°21' W 002°31'7 6.9
2014-Oct-29 04:33N 47°19' W 002°41'10 9.8
2014-Oct-29 03:33N 47°17' W 002°55'10 9.7
2014-Oct-29 02:29N 47°16' W 003°10'8 8.2
2014-Oct-29 01:33N 47°18' W 003°21'4 3.9
2014-Oct-29 00:33N 47°20' W 003°26'1 0.9
2014-Oct-28 23:33N 47°19' W 003°25'0 0.4
2014-Oct-28 22:33N 47°19' W 003°24'8 3.9
2014-Oct-28 20:33N 47°26' W 003°28'1 0.4
2014-Oct-28 19:08N 47°26' W 003°27'6 1.0
2014-Oct-28 13:33N 47°20' W 003°26'15 5.1
2014-Oct-28 10:32N 47°35' W 003°34'16 2.4
2014-Oct-28 03:33N 47°33' W 003°58'3 1.5
2014-Oct-28 01:25N 47°32' W 003°53'15 5.1
2014-Oct-27 22:33N 47°26' W 003°34'3 3.0
2014-Oct-27 21:33N 47°23' W 003°33'6 2.1
2014-Oct-27 18:34N 47°17' W 003°29'1 0.6
2014-Oct-27 17:33N 47°18' W 003°29'8 4.0
2014-Oct-27 15:34N 47°16' W 003°40'7 3.7
2014-Oct-27 13:33N 47°14' W 003°30'9 8.6
2014-Oct-27 12:33N 47°12' W 003°18'10 9.8
2014-Oct-27 11:33N 47°15' W 003°04'1010.3
2014-Oct-27 10:33N 47°17' W 002°49'12 9.3
2014-Oct-27 09:13N 47°20' W 002°31'1 0.8
2014-Oct-27 08:33N 47°21' W 002°31'0 0.4
2014-Oct-27 07:33N 47°21' W 002°31'1210.1
2014-Oct-27 06:23N 47°17' W 002°48'910.2
2014-Oct-27 05:32N 47°15' W 003°00'1010.3
2014-Oct-27 04:32N 47°13' W 003°15'7 2.3
2014-Oct-27 01:34N 47°10' W 003°25'1 0.9
2014-Oct-27 00:34N 47°09' W 003°25'2 0.8
2014-Oct-26 21:33N 47°11' W 003°23'3 2.7
2014-Oct-26 20:34N 47°09' W 003°19'  

Dump ship's entire track history